sensor_id;sensor_type;location;lat;lon;timestamp;P1;durP1;ratioP1;P2;durP2;ratioP2
41881;SDS011;27562;47.524;12.404;2024-03-07T00:00:21;7.50;;;4.32;;
41881;SDS011;27562;47.524;12.404;2024-03-07T00:02:48;6.47;;;3.92;;
41881;SDS011;27562;47.524;12.404;2024-03-07T00:05:15;5.45;;;3.88;;
41881;SDS011;27562;47.524;12.404;2024-03-07T00:07:44;5.00;;;3.47;;
41881;SDS011;27562;47.524;12.404;2024-03-07T00:10:10;5.60;;;3.72;;
41881;SDS011;27562;47.524;12.404;2024-03-07T00:12:39;5.70;;;3.95;;
41881;SDS011;27562;47.524;12.404;2024-03-07T00:15:08;4.90;;;3.22;;
41881;SDS011;27562;47.524;12.404;2024-03-07T00:17:38;5.35;;;3.47;;
41881;SDS011;27562;47.524;12.404;2024-03-07T00:20:04;5.60;;;3.85;;
41881;SDS011;27562;47.524;12.404;2024-03-07T00:22:34;5.60;;;3.70;;
41881;SDS011;27562;47.524;12.404;2024-03-07T00:25:01;4.97;;;3.58;;
41881;SDS011;27562;47.524;12.404;2024-03-07T00:27:29;5.57;;;3.85;;
41881;SDS011;27562;47.524;12.404;2024-03-07T00:29:55;6.47;;;3.65;;
41881;SDS011;27562;47.524;12.404;2024-03-07T00:32:22;5.57;;;3.80;;
41881;SDS011;27562;47.524;12.404;2024-03-07T00:34:48;5.68;;;3.65;;
41881;SDS011;27562;47.524;12.404;2024-03-07T00:37:15;5.30;;;3.95;;
41881;SDS011;27562;47.524;12.404;2024-03-07T00:39:41;5.88;;;4.22;;
41881;SDS011;27562;47.524;12.404;2024-03-07T00:42:07;6.60;;;4.40;;
41881;SDS011;27562;47.524;12.404;2024-03-07T00:44:33;5.30;;;3.80;;
41881;SDS011;27562;47.524;12.404;2024-03-07T00:47:02;6.05;;;3.85;;
41881;SDS011;27562;47.524;12.404;2024-03-07T00:49:29;7.20;;;4.43;;
41881;SDS011;27562;47.524;12.404;2024-03-07T00:51:56;6.18;;;4.40;;
41881;SDS011;27562;47.524;12.404;2024-03-07T00:54:22;6.15;;;4.13;;
41881;SDS011;27562;47.524;12.404;2024-03-07T00:56:48;6.20;;;4.43;;
41881;SDS011;27562;47.524;12.404;2024-03-07T00:59:17;6.85;;;4.25;;
41881;SDS011;27562;47.524;12.404;2024-03-07T01:01:44;6.68;;;4.50;;
41881;SDS011;27562;47.524;12.404;2024-03-07T01:04:10;5.97;;;4.22;;
41881;SDS011;27562;47.524;12.404;2024-03-07T01:06:36;6.75;;;4.50;;
41881;SDS011;27562;47.524;12.404;2024-03-07T01:09:03;7.03;;;4.95;;
41881;SDS011;27562;47.524;12.404;2024-03-07T01:11:29;7.05;;;4.82;;
41881;SDS011;27562;47.524;12.404;2024-03-07T01:13:54;8.18;;;5.07;;
41881;SDS011;27562;47.524;12.404;2024-03-07T01:16:20;6.05;;;4.28;;
41881;SDS011;27562;47.524;12.404;2024-03-07T01:18:46;7.95;;;4.85;;
41881;SDS011;27562;47.524;12.404;2024-03-07T01:21:12;12.82;;;7.10;;
41881;SDS011;27562;47.524;12.404;2024-03-07T01:23:38;14.65;;;7.82;;
41881;SDS011;27562;47.524;12.404;2024-03-07T01:26:04;12.65;;;7.03;;
41881;SDS011;27562;47.524;12.404;2024-03-07T01:28:30;11.32;;;6.50;;
41881;SDS011;27562;47.524;12.404;2024-03-07T01:30:56;10.10;;;6.45;;
41881;SDS011;27562;47.524;12.404;2024-03-07T01:33:23;10.85;;;6.10;;
41881;SDS011;27562;47.524;12.404;2024-03-07T01:35:48;9.73;;;5.93;;
41881;SDS011;27562;47.524;12.404;2024-03-07T01:38:15;9.75;;;5.70;;
41881;SDS011;27562;47.524;12.404;2024-03-07T01:40:41;10.57;;;5.70;;
41881;SDS011;27562;47.524;12.404;2024-03-07T01:43:08;10.25;;;6.05;;
41881;SDS011;27562;47.524;12.404;2024-03-07T01:45:34;11.73;;;6.57;;
41881;SDS011;27562;47.524;12.404;2024-03-07T01:48:03;8.25;;;5.78;;
41881;SDS011;27562;47.524;12.404;2024-03-07T01:50:34;8.60;;;5.85;;
41881;SDS011;27562;47.524;12.404;2024-03-07T01:53:03;9.15;;;5.97;;
41881;SDS011;27562;47.524;12.404;2024-03-07T01:55:31;9.05;;;5.35;;
41881;SDS011;27562;47.524;12.404;2024-03-07T01:58:02;9.18;;;5.95;;
41881;SDS011;27562;47.524;12.404;2024-03-07T02:00:29;8.68;;;5.70;;
41881;SDS011;27562;47.524;12.404;2024-03-07T02:02:56;9.07;;;6.00;;
41881;SDS011;27562;47.524;12.404;2024-03-07T02:05:22;8.13;;;5.72;;
41881;SDS011;27562;47.524;12.404;2024-03-07T02:07:49;9.05;;;5.18;;
41881;SDS011;27562;47.524;12.404;2024-03-07T02:10:16;8.60;;;5.25;;
41881;SDS011;27562;47.524;12.404;2024-03-07T02:12:43;11.68;;;5.63;;
41881;SDS011;27562;47.524;12.404;2024-03-07T02:15:10;8.00;;;5.50;;
41881;SDS011;27562;47.524;12.404;2024-03-07T02:17:36;9.88;;;6.10;;
41881;SDS011;27562;47.524;12.404;2024-03-07T02:20:03;9.57;;;5.93;;
41881;SDS011;27562;47.524;12.404;2024-03-07T02:22:32;8.77;;;5.65;;
41881;SDS011;27562;47.524;12.404;2024-03-07T02:24:58;10.10;;;6.22;;
41881;SDS011;27562;47.524;12.404;2024-03-07T02:27:23;9.43;;;5.65;;
41881;SDS011;27562;47.524;12.404;2024-03-07T02:29:49;7.90;;;5.05;;
41881;SDS011;27562;47.524;12.404;2024-03-07T02:32:16;9.30;;;5.55;;
41881;SDS011;27562;47.524;12.404;2024-03-07T02:34:42;8.30;;;5.55;;
41881;SDS011;27562;47.524;12.404;2024-03-07T02:37:08;8.50;;;5.53;;
41881;SDS011;27562;47.524;12.404;2024-03-07T02:39:35;9.32;;;5.95;;
41881;SDS011;27562;47.524;12.404;2024-03-07T02:42:01;9.43;;;6.45;;
41881;SDS011;27562;47.524;12.404;2024-03-07T02:44:27;9.77;;;6.13;;
41881;SDS011;27562;47.524;12.404;2024-03-07T02:46:53;10.15;;;6.50;;
41881;SDS011;27562;47.524;12.404;2024-03-07T02:49:19;9.40;;;6.03;;
41881;SDS011;27562;47.524;12.404;2024-03-07T02:51:46;10.93;;;6.20;;
41881;SDS011;27562;47.524;12.404;2024-03-07T02:54:12;10.65;;;6.18;;
41881;SDS011;27562;47.524;12.404;2024-03-07T02:56:37;11.50;;;7.00;;
41881;SDS011;27562;47.524;12.404;2024-03-07T02:59:03;9.75;;;6.45;;
41881;SDS011;27562;47.524;12.404;2024-03-07T03:01:29;10.13;;;6.15;;
41881;SDS011;27562;47.524;12.404;2024-03-07T03:03:54;9.18;;;6.13;;
41881;SDS011;27562;47.524;12.404;2024-03-07T03:06:20;9.27;;;5.80;;
41881;SDS011;27562;47.524;12.404;2024-03-07T03:08:46;10.30;;;6.05;;
41881;SDS011;27562;47.524;12.404;2024-03-07T03:11:12;9.38;;;5.75;;
41881;SDS011;27562;47.524;12.404;2024-03-07T03:13:39;9.07;;;6.10;;
41881;SDS011;27562;47.524;12.404;2024-03-07T03:16:05;10.13;;;5.82;;
41881;SDS011;27562;47.524;12.404;2024-03-07T03:18:34;10.05;;;6.40;;
41881;SDS011;27562;47.524;12.404;2024-03-07T03:21:01;9.30;;;5.78;;
41881;SDS011;27562;47.524;12.404;2024-03-07T03:23:27;10.05;;;6.47;;
41881;SDS011;27562;47.524;12.404;2024-03-07T03:25:53;9.20;;;5.93;;
41881;SDS011;27562;47.524;12.404;2024-03-07T03:28:20;9.18;;;5.90;;
41881;SDS011;27562;47.524;12.404;2024-03-07T03:30:46;9.57;;;6.20;;
41881;SDS011;27562;47.524;12.404;2024-03-07T03:33:13;10.20;;;6.10;;
41881;SDS011;27562;47.524;12.404;2024-03-07T03:35:39;9.65;;;6.03;;
41881;SDS011;27562;47.524;12.404;2024-03-07T03:38:05;8.48;;;5.47;;
41881;SDS011;27562;47.524;12.404;2024-03-07T03:40:31;9.07;;;5.80;;
41881;SDS011;27562;47.524;12.404;2024-03-07T03:42:58;11.35;;;5.85;;
41881;SDS011;27562;47.524;12.404;2024-03-07T03:45:23;9.60;;;5.63;;
41881;SDS011;27562;47.524;12.404;2024-03-07T03:47:50;10.50;;;6.35;;
41881;SDS011;27562;47.524;12.404;2024-03-07T03:50:16;8.98;;;5.88;;
41881;SDS011;27562;47.524;12.404;2024-03-07T03:52:43;11.52;;;7.20;;
41881;SDS011;27562;47.524;12.404;2024-03-07T03:55:09;11.77;;;7.38;;
41881;SDS011;27562;47.524;12.404;2024-03-07T03:57:35;12.48;;;6.93;;
41881;SDS011;27562;47.524;12.404;2024-03-07T04:00:02;11.70;;;6.90;;
41881;SDS011;27562;47.524;12.404;2024-03-07T04:02:35;11.68;;;7.05;;
41881;SDS011;27562;47.524;12.404;2024-03-07T04:05:02;11.25;;;6.40;;
41881;SDS011;27562;47.524;12.404;2024-03-07T04:07:29;10.75;;;6.40;;
41881;SDS011;27562;47.524;12.404;2024-03-07T04:09:56;12.00;;;6.75;;
41881;SDS011;27562;47.524;12.404;2024-03-07T04:12:23;11.20;;;6.95;;
41881;SDS011;27562;47.524;12.404;2024-03-07T04:14:51;10.07;;;6.57;;
41881;SDS011;27562;47.524;12.404;2024-03-07T04:17:19;10.15;;;6.60;;
41881;SDS011;27562;47.524;12.404;2024-03-07T04:19:46;14.25;;;8.10;;
41881;SDS011;27562;47.524;12.404;2024-03-07T04:22:11;14.70;;;9.85;;
41881;SDS011;27562;47.524;12.404;2024-03-07T04:24:37;16.20;;;8.77;;
41881;SDS011;27562;47.524;12.404;2024-03-07T04:27:04;13.15;;;8.25;;
41881;SDS011;27562;47.524;12.404;2024-03-07T04:29:32;14.35;;;8.68;;
41881;SDS011;27562;47.524;12.404;2024-03-07T04:31:58;13.38;;;8.63;;
41881;SDS011;27562;47.524;12.404;2024-03-07T04:34:26;14.13;;;9.23;;
41881;SDS011;27562;47.524;12.404;2024-03-07T04:36:53;21.52;;;12.77;;
41881;SDS011;27562;47.524;12.404;2024-03-07T04:39:18;20.67;;;13.23;;
41881;SDS011;27562;47.524;12.404;2024-03-07T04:41:57;20.00;;;12.20;;
41881;SDS011;27562;47.524;12.404;2024-03-07T04:44:27;18.50;;;11.45;;
41881;SDS011;27562;47.524;12.404;2024-03-07T04:46:54;14.45;;;9.20;;
41881;SDS011;27562;47.524;12.404;2024-03-07T04:49:23;12.60;;;8.45;;
41881;SDS011;27562;47.524;12.404;2024-03-07T04:51:53;14.35;;;8.20;;
41881;SDS011;27562;47.524;12.404;2024-03-07T04:54:19;14.95;;;8.80;;
41881;SDS011;27562;47.524;12.404;2024-03-07T04:56:46;14.07;;;8.25;;
41881;SDS011;27562;47.524;12.404;2024-03-07T04:59:15;11.85;;;7.15;;
41881;SDS011;27562;47.524;12.404;2024-03-07T05:01:42;12.27;;;7.78;;
41881;SDS011;27562;47.524;12.404;2024-03-07T05:04:09;12.93;;;7.93;;
41881;SDS011;27562;47.524;12.404;2024-03-07T05:06:37;14.13;;;7.47;;
41881;SDS011;27562;47.524;12.404;2024-03-07T05:09:03;11.93;;;7.35;;
41881;SDS011;27562;47.524;12.404;2024-03-07T05:11:30;12.20;;;7.57;;
41881;SDS011;27562;47.524;12.404;2024-03-07T05:13:56;12.10;;;6.88;;
41881;SDS011;27562;47.524;12.404;2024-03-07T05:16:26;10.13;;;6.53;;
41881;SDS011;27562;47.524;12.404;2024-03-07T05:18:52;13.75;;;8.45;;
41881;SDS011;27562;47.524;12.404;2024-03-07T05:21:19;13.00;;;8.38;;
41881;SDS011;27562;47.524;12.404;2024-03-07T05:24:00;12.48;;;7.85;;
41881;SDS011;27562;47.524;12.404;2024-03-07T05:26:26;12.98;;;8.48;;
41881;SDS011;27562;47.524;12.404;2024-03-07T05:28:52;14.93;;;9.43;;
41881;SDS011;27562;47.524;12.404;2024-03-07T05:31:20;17.45;;;9.60;;
41881;SDS011;27562;47.524;12.404;2024-03-07T05:33:47;18.90;;;11.32;;
41881;SDS011;27562;47.524;12.404;2024-03-07T05:36:13;21.52;;;12.88;;
41881;SDS011;27562;47.524;12.404;2024-03-07T05:38:40;20.25;;;11.73;;
41881;SDS011;27562;47.524;12.404;2024-03-07T05:41:10;18.05;;;10.57;;
41881;SDS011;27562;47.524;12.404;2024-03-07T05:43:37;14.63;;;9.05;;
41881;SDS011;27562;47.524;12.404;2024-03-07T05:46:03;14.95;;;9.02;;
41881;SDS011;27562;47.524;12.404;2024-03-07T05:48:31;15.15;;;9.43;;
41881;SDS011;27562;47.524;12.404;2024-03-07T05:50:57;14.68;;;8.57;;
41881;SDS011;27562;47.524;12.404;2024-03-07T05:53:23;15.23;;;9.20;;
41881;SDS011;27562;47.524;12.404;2024-03-07T05:55:49;15.18;;;9.18;;
41881;SDS011;27562;47.524;12.404;2024-03-07T05:58:15;15.13;;;9.90;;
41881;SDS011;27562;47.524;12.404;2024-03-07T06:00:44;17.08;;;11.35;;
41881;SDS011;27562;47.524;12.404;2024-03-07T06:03:14;19.63;;;11.35;;
41881;SDS011;27562;47.524;12.404;2024-03-07T06:05:45;18.60;;;11.35;;
41881;SDS011;27562;47.524;12.404;2024-03-07T06:08:17;19.52;;;11.13;;
41881;SDS011;27562;47.524;12.404;2024-03-07T06:10:44;20.33;;;11.48;;
41881;SDS011;27562;47.524;12.404;2024-03-07T06:13:11;18.42;;;11.48;;
41881;SDS011;27562;47.524;12.404;2024-03-07T06:15:40;20.23;;;11.30;;
41881;SDS011;27562;47.524;12.404;2024-03-07T06:18:09;19.80;;;11.48;;
41881;SDS011;27562;47.524;12.404;2024-03-07T06:20:44;21.35;;;12.57;;
41881;SDS011;27562;47.524;12.404;2024-03-07T06:23:10;26.33;;;15.20;;
41881;SDS011;27562;47.524;12.404;2024-03-07T06:25:41;24.30;;;14.18;;
41881;SDS011;27562;47.524;12.404;2024-03-07T06:28:16;25.00;;;14.60;;
41881;SDS011;27562;47.524;12.404;2024-03-07T06:30:43;26.88;;;15.35;;
41881;SDS011;27562;47.524;12.404;2024-03-07T06:33:10;30.67;;;18.00;;
41881;SDS011;27562;47.524;12.404;2024-03-07T06:35:36;28.58;;;16.88;;
41881;SDS011;27562;47.524;12.404;2024-03-07T06:38:04;27.23;;;14.98;;
41881;SDS011;27562;47.524;12.404;2024-03-07T06:40:31;19.58;;;11.82;;
41881;SDS011;27562;47.524;12.404;2024-03-07T06:42:58;22.08;;;12.45;;
41881;SDS011;27562;47.524;12.404;2024-03-07T06:45:24;22.38;;;13.23;;
41881;SDS011;27562;47.524;12.404;2024-03-07T06:47:50;22.90;;;12.80;;
41881;SDS011;27562;47.524;12.404;2024-03-07T06:50:17;25.35;;;12.65;;
41881;SDS011;27562;47.524;12.404;2024-03-07T06:52:47;22.85;;;11.50;;
41881;SDS011;27562;47.524;12.404;2024-03-07T06:55:14;22.17;;;12.07;;
41881;SDS011;27562;47.524;12.404;2024-03-07T06:57:42;24.17;;;12.30;;
41881;SDS011;27562;47.524;12.404;2024-03-07T07:00:08;19.48;;;11.30;;
41881;SDS011;27562;47.524;12.404;2024-03-07T07:02:39;21.13;;;12.15;;
41881;SDS011;27562;47.524;12.404;2024-03-07T07:05:06;21.50;;;10.93;;
41881;SDS011;27562;47.524;12.404;2024-03-07T07:07:39;20.88;;;12.25;;
41881;SDS011;27562;47.524;12.404;2024-03-07T07:10:06;24.35;;;13.35;;
41881;SDS011;27562;47.524;12.404;2024-03-07T07:12:37;21.08;;;12.07;;
41881;SDS011;27562;47.524;12.404;2024-03-07T07:15:03;23.27;;;11.93;;
41881;SDS011;27562;47.524;12.404;2024-03-07T07:17:29;21.85;;;12.05;;
41881;SDS011;27562;47.524;12.404;2024-03-07T07:19:57;20.83;;;11.30;;
41881;SDS011;27562;47.524;12.404;2024-03-07T07:22:24;21.35;;;11.48;;
41881;SDS011;27562;47.524;12.404;2024-03-07T07:24:50;18.27;;;10.75;;
41881;SDS011;27562;47.524;12.404;2024-03-07T07:27:16;20.65;;;11.15;;
41881;SDS011;27562;47.524;12.404;2024-03-07T07:29:43;19.75;;;11.10;;
41881;SDS011;27562;47.524;12.404;2024-03-07T07:32:09;20.48;;;11.43;;
41881;SDS011;27562;47.524;12.404;2024-03-07T07:34:37;18.20;;;10.57;;
41881;SDS011;27562;47.524;12.404;2024-03-07T07:37:03;17.98;;;10.45;;
41881;SDS011;27562;47.524;12.404;2024-03-07T07:39:30;18.77;;;10.70;;
41881;SDS011;27562;47.524;12.404;2024-03-07T07:41:56;18.73;;;9.90;;
41881;SDS011;27562;47.524;12.404;2024-03-07T07:44:22;17.40;;;9.80;;
41881;SDS011;27562;47.524;12.404;2024-03-07T07:46:48;16.40;;;9.38;;
41881;SDS011;27562;47.524;12.404;2024-03-07T07:49:14;19.45;;;10.80;;
41881;SDS011;27562;47.524;12.404;2024-03-07T07:51:41;18.85;;;9.77;;
41881;SDS011;27562;47.524;12.404;2024-03-07T07:54:07;20.27;;;10.98;;
41881;SDS011;27562;47.524;12.404;2024-03-07T07:56:34;17.33;;;9.50;;
41881;SDS011;27562;47.524;12.404;2024-03-07T07:59:00;17.42;;;9.52;;
41881;SDS011;27562;47.524;12.404;2024-03-07T08:01:29;19.52;;;11.27;;
41881;SDS011;27562;47.524;12.404;2024-03-07T08:03:55;19.85;;;11.57;;
41881;SDS011;27562;47.524;12.404;2024-03-07T08:06:21;19.90;;;11.93;;
41881;SDS011;27562;47.524;12.404;2024-03-07T08:08:47;18.65;;;9.60;;
41881;SDS011;27562;47.524;12.404;2024-03-07T08:11:13;19.65;;;11.57;;
41881;SDS011;27562;47.524;12.404;2024-03-07T08:13:39;20.23;;;11.35;;
41881;SDS011;27562;47.524;12.404;2024-03-07T08:16:05;20.17;;;11.50;;
41881;SDS011;27562;47.524;12.404;2024-03-07T08:18:31;20.60;;;10.93;;
41881;SDS011;27562;47.524;12.404;2024-03-07T08:20:57;18.88;;;10.02;;
41881;SDS011;27562;47.524;12.404;2024-03-07T08:23:23;20.02;;;10.27;;
41881;SDS011;27562;47.524;12.404;2024-03-07T08:25:54;18.40;;;10.30;;
41881;SDS011;27562;47.524;12.404;2024-03-07T08:28:20;18.50;;;10.43;;
41881;SDS011;27562;47.524;12.404;2024-03-07T08:30:45;19.73;;;10.23;;
41881;SDS011;27562;47.524;12.404;2024-03-07T08:33:11;19.65;;;9.85;;
41881;SDS011;27562;47.524;12.404;2024-03-07T08:35:38;17.95;;;9.93;;
41881;SDS011;27562;47.524;12.404;2024-03-07T08:38:04;15.60;;;8.80;;
41881;SDS011;27562;47.524;12.404;2024-03-07T08:40:30;14.20;;;8.73;;
41881;SDS011;27562;47.524;12.404;2024-03-07T08:42:57;17.98;;;8.93;;
41881;SDS011;27562;47.524;12.404;2024-03-07T08:45:27;17.95;;;10.20;;
41881;SDS011;27562;47.524;12.404;2024-03-07T08:47:54;18.05;;;9.27;;
41881;SDS011;27562;47.524;12.404;2024-03-07T08:50:21;16.92;;;8.75;;
41881;SDS011;27562;47.524;12.404;2024-03-07T08:52:48;15.35;;;9.18;;
41881;SDS011;27562;47.524;12.404;2024-03-07T08:55:15;17.52;;;9.52;;
41881;SDS011;27562;47.524;12.404;2024-03-07T08:57:42;17.75;;;10.25;;
41881;SDS011;27562;47.524;12.404;2024-03-07T09:00:11;17.10;;;9.88;;
41881;SDS011;27562;47.524;12.404;2024-03-07T09:02:47;16.08;;;8.52;;
41881;SDS011;27562;47.524;12.404;2024-03-07T09:05:17;20.70;;;9.00;;
41881;SDS011;27562;47.524;12.404;2024-03-07T09:07:43;15.52;;;8.43;;
41881;SDS011;27562;47.524;12.404;2024-03-07T09:10:11;16.52;;;9.05;;
41881;SDS011;27562;47.524;12.404;2024-03-07T09:12:40;14.80;;;8.15;;
41881;SDS011;27562;47.524;12.404;2024-03-07T09:15:06;14.73;;;7.97;;
41881;SDS011;27562;47.524;12.404;2024-03-07T09:17:32;13.38;;;7.47;;
41881;SDS011;27562;47.524;12.404;2024-03-07T09:19:58;11.60;;;6.85;;
41881;SDS011;27562;47.524;12.404;2024-03-07T09:22:23;10.88;;;6.10;;
41881;SDS011;27562;47.524;12.404;2024-03-07T09:24:50;11.70;;;6.57;;
41881;SDS011;27562;47.524;12.404;2024-03-07T09:27:16;9.27;;;5.60;;
41881;SDS011;27562;47.524;12.404;2024-03-07T09:29:44;11.43;;;5.53;;
41881;SDS011;27562;47.524;12.404;2024-03-07T09:32:12;10.00;;;5.55;;
41881;SDS011;27562;47.524;12.404;2024-03-07T09:34:38;7.85;;;5.00;;
41881;SDS011;27562;47.524;12.404;2024-03-07T09:37:05;7.72;;;4.25;;
41881;SDS011;27562;47.524;12.404;2024-03-07T09:39:34;9.55;;;5.93;;
41881;SDS011;27562;47.524;12.404;2024-03-07T09:42:03;10.45;;;6.35;;
41881;SDS011;27562;47.524;12.404;2024-03-07T09:44:38;15.95;;;8.13;;
41881;SDS011;27562;47.524;12.404;2024-03-07T09:47:06;11.18;;;6.78;;
41881;SDS011;27562;47.524;12.404;2024-03-07T09:49:33;15.15;;;7.93;;
41881;SDS011;27562;47.524;12.404;2024-03-07T09:52:03;15.30;;;8.38;;
41881;SDS011;27562;47.524;12.404;2024-03-07T09:54:33;14.82;;;8.68;;
41881;SDS011;27562;47.524;12.404;2024-03-07T09:57:00;15.90;;;8.70;;
41881;SDS011;27562;47.524;12.404;2024-03-07T09:59:28;13.80;;;7.63;;
41881;SDS011;27562;47.524;12.404;2024-03-07T10:02:00;15.88;;;7.93;;
41881;SDS011;27562;47.524;12.404;2024-03-07T10:04:51;12.75;;;6.85;;
41881;SDS011;27562;47.524;12.404;2024-03-07T10:07:18;15.05;;;8.35;;
41881;SDS011;27562;47.524;12.404;2024-03-07T10:09:44;13.27;;;7.75;;
41881;SDS011;27562;47.524;12.404;2024-03-07T10:12:10;12.10;;;7.22;;
41881;SDS011;27562;47.524;12.404;2024-03-07T10:14:47;11.25;;;6.57;;
41881;SDS011;27562;47.524;12.404;2024-03-07T10:17:17;12.63;;;7.22;;
41881;SDS011;27562;47.524;12.404;2024-03-07T10:19:52;12.10;;;6.70;;
41881;SDS011;27562;47.524;12.404;2024-03-07T10:22:19;13.80;;;7.35;;
41881;SDS011;27562;47.524;12.404;2024-03-07T10:24:51;11.40;;;6.72;;
41881;SDS011;27562;47.524;12.404;2024-03-07T10:27:19;12.52;;;6.75;;
41881;SDS011;27562;47.524;12.404;2024-03-07T10:29:49;13.73;;;7.18;;
41881;SDS011;27562;47.524;12.404;2024-03-07T10:32:20;12.13;;;6.50;;
41881;SDS011;27562;47.524;12.404;2024-03-07T10:34:47;20.75;;;10.80;;
41881;SDS011;27562;47.524;12.404;2024-03-07T10:37:13;102.78;;;40.45;;
41881;SDS011;27562;47.524;12.404;2024-03-07T10:39:43;34.05;;;15.85;;
41881;SDS011;27562;47.524;12.404;2024-03-07T10:42:10;17.75;;;9.55;;
41881;SDS011;27562;47.524;12.404;2024-03-07T10:44:51;40.65;;;20.25;;
41881;SDS011;27562;47.524;12.404;2024-03-07T10:47:23;13.73;;;7.68;;
41881;SDS011;27562;47.524;12.404;2024-03-07T10:52:38;27.50;;;15.45;;
41881;SDS011;27562;47.524;12.404;2024-03-07T10:57:52;27.42;;;13.68;;
41881;SDS011;27562;47.524;12.404;2024-03-07T11:00:27;12.15;;;6.45;;
41881;SDS011;27562;47.524;12.404;2024-03-07T11:03:04;13.55;;;7.25;;
41881;SDS011;27562;47.524;12.404;2024-03-07T11:05:34;14.02;;;7.32;;
41881;SDS011;27562;47.524;12.404;2024-03-07T11:08:01;25.13;;;13.18;;
41881;SDS011;27562;47.524;12.404;2024-03-07T11:10:36;16.40;;;9.00;;
41881;SDS011;27562;47.524;12.404;2024-03-07T11:13:11;7.43;;;4.20;;
41881;SDS011;27562;47.524;12.404;2024-03-07T11:15:42;6.82;;;3.85;;
41881;SDS011;27562;47.524;12.404;2024-03-07T11:18:11;5.88;;;3.50;;
41881;SDS011;27562;47.524;12.404;2024-03-07T11:20:38;5.40;;;3.22;;
41881;SDS011;27562;47.524;12.404;2024-03-07T11:25:53;4.82;;;3.13;;
41881;SDS011;27562;47.524;12.404;2024-03-07T11:28:27;44.10;;;18.90;;
41881;SDS011;27562;47.524;12.404;2024-03-07T11:30:54;6.50;;;3.72;;
41881;SDS011;27562;47.524;12.404;2024-03-07T11:33:20;9.18;;;4.90;;
41881;SDS011;27562;47.524;12.404;2024-03-07T11:35:49;7.53;;;3.50;;
41881;SDS011;27562;47.524;12.404;2024-03-07T11:38:14;4.68;;;2.50;;
41881;SDS011;27562;47.524;12.404;2024-03-07T11:43:10;5.60;;;3.00;;
41881;SDS011;27562;47.524;12.404;2024-03-07T11:45:37;5.10;;;2.78;;
41881;SDS011;27562;47.524;12.404;2024-03-07T11:48:22;7.80;;;3.88;;
41881;SDS011;27562;47.524;12.404;2024-03-07T11:50:49;7.43;;;4.00;;
41881;SDS011;27562;47.524;12.404;2024-03-07T11:53:15;13.88;;;7.45;;
41881;SDS011;27562;47.524;12.404;2024-03-07T11:55:42;8.93;;;4.05;;
41881;SDS011;27562;47.524;12.404;2024-03-07T11:58:13;8.23;;;4.43;;
41881;SDS011;27562;47.524;12.404;2024-03-07T12:00:41;6.47;;;3.78;;
41881;SDS011;27562;47.524;12.404;2024-03-07T12:03:10;8.13;;;3.92;;
41881;SDS011;27562;47.524;12.404;2024-03-07T12:05:38;8.38;;;4.32;;
41881;SDS011;27562;47.524;12.404;2024-03-07T12:08:06;12.88;;;6.18;;
41881;SDS011;27562;47.524;12.404;2024-03-07T12:10:32;11.68;;;6.15;;
41881;SDS011;27562;47.524;12.404;2024-03-07T12:12:58;11.30;;;5.93;;
41881;SDS011;27562;47.524;12.404;2024-03-07T12:15:26;12.32;;;6.95;;
41881;SDS011;27562;47.524;12.404;2024-03-07T12:17:52;11.60;;;6.65;;
41881;SDS011;27562;47.524;12.404;2024-03-07T12:20:19;11.68;;;6.72;;
41881;SDS011;27562;47.524;12.404;2024-03-07T12:22:54;13.18;;;7.65;;
41881;SDS011;27562;47.524;12.404;2024-03-07T12:25:21;13.30;;;6.82;;
41881;SDS011;27562;47.524;12.404;2024-03-07T12:30:37;10.88;;;5.30;;
41881;SDS011;27562;47.524;12.404;2024-03-07T12:33:16;12.18;;;6.50;;
41881;SDS011;27562;47.524;12.404;2024-03-07T12:35:43;15.77;;;8.32;;
41881;SDS011;27562;47.524;12.404;2024-03-07T12:38:10;15.23;;;7.80;;
41881;SDS011;27562;47.524;12.404;2024-03-07T12:40:38;13.45;;;7.13;;
41881;SDS011;27562;47.524;12.404;2024-03-07T12:43:14;13.63;;;7.45;;
41881;SDS011;27562;47.524;12.404;2024-03-07T12:45:47;14.45;;;7.55;;
41881;SDS011;27562;47.524;12.404;2024-03-07T12:48:14;13.20;;;7.53;;
41881;SDS011;27562;47.524;12.404;2024-03-07T12:50:41;13.82;;;7.88;;
41881;SDS011;27562;47.524;12.404;2024-03-07T12:53:10;14.25;;;8.07;;
41881;SDS011;27562;47.524;12.404;2024-03-07T12:55:40;16.00;;;8.55;;
41881;SDS011;27562;47.524;12.404;2024-03-07T12:58:12;15.48;;;8.20;;
41881;SDS011;27562;47.524;12.404;2024-03-07T13:00:38;15.27;;;7.88;;
41881;SDS011;27562;47.524;12.404;2024-03-07T13:03:09;14.80;;;7.80;;
41881;SDS011;27562;47.524;12.404;2024-03-07T13:05:36;23.55;;;8.10;;
41881;SDS011;27562;47.524;12.404;2024-03-07T13:08:05;13.23;;;7.93;;
41881;SDS011;27562;47.524;12.404;2024-03-07T13:10:36;14.60;;;7.63;;
41881;SDS011;27562;47.524;12.404;2024-03-07T13:13:06;14.98;;;8.23;;
41881;SDS011;27562;47.524;12.404;2024-03-07T13:15:34;16.25;;;8.43;;
41881;SDS011;27562;47.524;12.404;2024-03-07T13:18:02;15.63;;;8.02;;
41881;SDS011;27562;47.524;12.404;2024-03-07T13:20:30;21.67;;;10.35;;
41881;SDS011;27562;47.524;12.404;2024-03-07T13:22:57;16.63;;;8.50;;
41881;SDS011;27562;47.524;12.404;2024-03-07T13:25:25;12.88;;;7.15;;
41881;SDS011;27562;47.524;12.404;2024-03-07T13:28:00;16.95;;;8.57;;
41881;SDS011;27562;47.524;12.404;2024-03-07T13:30:38;16.55;;;7.03;;
41881;SDS011;27562;47.524;12.404;2024-03-07T13:33:08;13.90;;;7.30;;
41881;SDS011;27562;47.524;12.404;2024-03-07T13:35:38;17.55;;;8.40;;
41881;SDS011;27562;47.524;12.404;2024-03-07T13:38:05;17.08;;;8.30;;
41881;SDS011;27562;47.524;12.404;2024-03-07T13:40:32;15.30;;;7.93;;
41881;SDS011;27562;47.524;12.404;2024-03-07T13:45:30;15.45;;;7.88;;
41881;SDS011;27562;47.524;12.404;2024-03-07T13:48:09;15.15;;;8.57;;
41881;SDS011;27562;47.524;12.404;2024-03-07T13:50:38;16.30;;;7.75;;
41881;SDS011;27562;47.524;12.404;2024-03-07T13:53:05;14.23;;;7.53;;
41881;SDS011;27562;47.524;12.404;2024-03-07T14:09:56;15.77;;;8.10;;
41881;SDS011;27562;47.524;12.404;2024-03-07T14:18:54;16.05;;;8.80;;
41881;SDS011;27562;47.524;12.404;2024-03-07T14:24:33;19.20;;;10.68;;
41881;SDS011;27562;47.524;12.404;2024-03-07T14:32:38;20.45;;;11.23;;
41881;SDS011;27562;47.524;12.404;2024-03-07T14:40:30;19.90;;;10.68;;
41881;SDS011;27562;47.524;12.404;2024-03-07T14:42:56;22.17;;;12.00;;
41881;SDS011;27562;47.524;12.404;2024-03-07T14:45:31;21.92;;;11.73;;
41881;SDS011;27562;47.524;12.404;2024-03-07T14:48:06;23.20;;;11.43;;
41881;SDS011;27562;47.524;12.404;2024-03-07T14:50:37;21.00;;;11.43;;
41881;SDS011;27562;47.524;12.404;2024-03-07T14:53:05;23.15;;;11.57;;
41881;SDS011;27562;47.524;12.404;2024-03-07T14:55:32;24.42;;;11.20;;
41881;SDS011;27562;47.524;12.404;2024-03-07T14:57:58;19.08;;;10.48;;
41881;SDS011;27562;47.524;12.404;2024-03-07T15:00:25;20.05;;;10.90;;
41881;SDS011;27562;47.524;12.404;2024-03-07T15:02:54;22.83;;;12.10;;
41881;SDS011;27562;47.524;12.404;2024-03-07T15:05:23;24.90;;;11.93;;
41881;SDS011;27562;47.524;12.404;2024-03-07T15:07:50;22.42;;;11.63;;
41881;SDS011;27562;47.524;12.404;2024-03-07T15:10:26;22.02;;;11.55;;
41881;SDS011;27562;47.524;12.404;2024-03-07T15:12:54;23.17;;;10.63;;
41881;SDS011;27562;47.524;12.404;2024-03-07T15:15:20;24.55;;;11.60;;